sensor_id;sensor_type;location;lat;lon;timestamp;P1;durP1;ratioP1;P2;durP2;ratioP2
71878;SDS011;59755;43.834;4.364;2022-11-24T00:00:32;8.93;;;4.43;;
71878;SDS011;59755;43.834;4.364;2022-11-24T00:02:57;9.23;;;3.95;;
71878;SDS011;59755;43.834;4.364;2022-11-24T00:05:24;10.85;;;4.43;;
71878;SDS011;59755;43.834;4.364;2022-11-24T00:07:50;12.45;;;4.60;;
71878;SDS011;59755;43.834;4.364;2022-11-24T00:10:16;11.35;;;4.68;;
71878;SDS011;59755;43.834;4.364;2022-11-24T00:12:42;10.57;;;3.75;;
71878;SDS011;59755;43.834;4.364;2022-11-24T00:15:07;10.02;;;4.07;;
71878;SDS011;59755;43.834;4.364;2022-11-24T00:17:33;9.52;;;4.15;;
71878;SDS011;59755;43.834;4.364;2022-11-24T00:19:59;10.05;;;4.05;;
71878;SDS011;59755;43.834;4.364;2022-11-24T00:22:25;12.70;;;4.30;;
71878;SDS011;59755;43.834;4.364;2022-11-24T00:24:50;8.68;;;3.63;;
71878;SDS011;59755;43.834;4.364;2022-11-24T00:27:16;10.20;;;4.05;;
71878;SDS011;59755;43.834;4.364;2022-11-24T00:29:42;10.50;;;3.30;;
71878;SDS011;59755;43.834;4.364;2022-11-24T00:32:07;7.82;;;3.65;;
71878;SDS011;59755;43.834;4.364;2022-11-24T00:34:33;10.27;;;4.07;;
71878;SDS011;59755;43.834;4.364;2022-11-24T00:36:59;10.15;;;3.70;;
71878;SDS011;59755;43.834;4.364;2022-11-24T00:39:24;9.65;;;3.70;;
71878;SDS011;59755;43.834;4.364;2022-11-24T00:41:50;8.43;;;3.70;;
71878;SDS011;59755;43.834;4.364;2022-11-24T00:44:16;9.13;;;3.47;;
71878;SDS011;59755;43.834;4.364;2022-11-24T00:46:42;11.73;;;3.90;;
71878;SDS011;59755;43.834;4.364;2022-11-24T00:49:07;8.55;;;3.88;;
71878;SDS011;59755;43.834;4.364;2022-11-24T00:51:33;10.15;;;3.90;;
71878;SDS011;59755;43.834;4.364;2022-11-24T00:53:59;9.35;;;3.38;;
71878;SDS011;59755;43.834;4.364;2022-11-24T00:56:26;8.55;;;3.53;;
71878;SDS011;59755;43.834;4.364;2022-11-24T00:58:53;9.75;;;4.28;;
71878;SDS011;59755;43.834;4.364;2022-11-24T01:01:21;10.02;;;3.45;;
71878;SDS011;59755;43.834;4.364;2022-11-24T01:03:48;9.13;;;3.53;;
71878;SDS011;59755;43.834;4.364;2022-11-24T01:06:15;10.38;;;3.67;;
71878;SDS011;59755;43.834;4.364;2022-11-24T01:08:42;8.45;;;3.70;;
71878;SDS011;59755;43.834;4.364;2022-11-24T01:11:10;8.45;;;4.22;;
71878;SDS011;59755;43.834;4.364;2022-11-24T01:13:40;10.43;;;4.15;;
71878;SDS011;59755;43.834;4.364;2022-11-24T01:16:20;10.73;;;4.00;;
71878;SDS011;59755;43.834;4.364;2022-11-24T01:18:46;9.57;;;4.47;;
71878;SDS011;59755;43.834;4.364;2022-11-24T01:21:13;10.98;;;4.55;;
71878;SDS011;59755;43.834;4.364;2022-11-24T01:23:39;9.27;;;4.82;;
71878;SDS011;59755;43.834;4.364;2022-11-24T01:26:06;11.20;;;4.38;;
71878;SDS011;59755;43.834;4.364;2022-11-24T01:28:33;8.95;;;4.47;;
71878;SDS011;59755;43.834;4.364;2022-11-24T01:31:00;12.30;;;4.88;;
71878;SDS011;59755;43.834;4.364;2022-11-24T01:33:29;9.93;;;4.38;;
71878;SDS011;59755;43.834;4.364;2022-11-24T01:35:56;11.05;;;4.88;;
71878;SDS011;59755;43.834;4.364;2022-11-24T01:38:22;13.35;;;5.15;;
71878;SDS011;59755;43.834;4.364;2022-11-24T01:40:49;13.00;;;5.10;;
71878;SDS011;59755;43.834;4.364;2022-11-24T01:43:51;10.85;;;5.03;;
71878;SDS011;59755;43.834;4.364;2022-11-24T01:46:36;11.90;;;5.43;;
71878;SDS011;59755;43.834;4.364;2022-11-24T01:51:32;10.57;;;4.95;;
71878;SDS011;59755;43.834;4.364;2022-11-24T01:54:04;8.77;;;4.47;;
71878;SDS011;59755;43.834;4.364;2022-11-24T01:56:33;13.27;;;5.13;;
71878;SDS011;59755;43.834;4.364;2022-11-24T01:59:02;12.25;;;4.72;;
71878;SDS011;59755;43.834;4.364;2022-11-24T02:01:31;11.32;;;4.72;;
71878;SDS011;59755;43.834;4.364;2022-11-24T02:03:58;9.18;;;4.38;;
71878;SDS011;59755;43.834;4.364;2022-11-24T02:06:26;13.45;;;4.65;;
71878;SDS011;59755;43.834;4.364;2022-11-24T02:08:59;12.55;;;4.45;;
71878;SDS011;59755;43.834;4.364;2022-11-24T02:11:32;11.93;;;4.45;;
71878;SDS011;59755;43.834;4.364;2022-11-24T02:14:01;11.07;;;4.60;;
71878;SDS011;59755;43.834;4.364;2022-11-24T02:16:30;11.40;;;4.07;;
71878;SDS011;59755;43.834;4.364;2022-11-24T02:18:58;8.82;;;3.97;;
71878;SDS011;59755;43.834;4.364;2022-11-24T02:21:24;14.23;;;4.88;;
71878;SDS011;59755;43.834;4.364;2022-11-24T02:29:10;12.52;;;4.53;;
71878;SDS011;59755;43.834;4.364;2022-11-24T02:31:40;11.38;;;4.78;;
71878;SDS011;59755;43.834;4.364;2022-11-24T02:34:10;14.20;;;4.43;;
71878;SDS011;59755;43.834;4.364;2022-11-24T02:36:36;12.43;;;4.10;;
71878;SDS011;59755;43.834;4.364;2022-11-24T02:39:02;11.00;;;4.45;;
71878;SDS011;59755;43.834;4.364;2022-11-24T02:41:29;12.10;;;4.03;;
71878;SDS011;59755;43.834;4.364;2022-11-24T02:43:57;10.05;;;4.05;;
71878;SDS011;59755;43.834;4.364;2022-11-24T02:46:25;12.85;;;4.63;;
71878;SDS011;59755;43.834;4.364;2022-11-24T02:48:51;12.10;;;4.45;;
71878;SDS011;59755;43.834;4.364;2022-11-24T02:51:17;11.15;;;4.43;;
71878;SDS011;59755;43.834;4.364;2022-11-24T02:53:43;12.75;;;4.47;;
71878;SDS011;59755;43.834;4.364;2022-11-24T02:56:09;12.82;;;4.18;;
71878;SDS011;59755;43.834;4.364;2022-11-24T02:58:34;11.02;;;4.25;;
71878;SDS011;59755;43.834;4.364;2022-11-24T03:01:00;9.88;;;3.70;;
71878;SDS011;59755;43.834;4.364;2022-11-24T03:03:28;10.32;;;3.60;;
71878;SDS011;59755;43.834;4.364;2022-11-24T03:05:53;13.10;;;4.32;;
71878;SDS011;59755;43.834;4.364;2022-11-24T03:08:19;9.80;;;3.80;;
71878;SDS011;59755;43.834;4.364;2022-11-24T03:10:45;15.73;;;3.97;;
71878;SDS011;59755;43.834;4.364;2022-11-24T03:13:11;9.65;;;3.28;;
71878;SDS011;59755;43.834;4.364;2022-11-24T03:15:37;10.52;;;3.58;;
71878;SDS011;59755;43.834;4.364;2022-11-24T03:18:02;13.20;;;3.38;;
71878;SDS011;59755;43.834;4.364;2022-11-24T03:20:28;9.30;;;3.35;;
71878;SDS011;59755;43.834;4.364;2022-11-24T03:22:55;12.65;;;3.45;;
71878;SDS011;59755;43.834;4.364;2022-11-24T03:25:20;11.13;;;3.10;;
71878;SDS011;59755;43.834;4.364;2022-11-24T03:27:46;12.80;;;3.25;;
71878;SDS011;59755;43.834;4.364;2022-11-24T03:30:12;11.50;;;3.83;;
71878;SDS011;59755;43.834;4.364;2022-11-24T03:32:38;10.32;;;3.08;;
71878;SDS011;59755;43.834;4.364;2022-11-24T03:35:04;9.80;;;3.03;;
71878;SDS011;59755;43.834;4.364;2022-11-24T03:37:30;10.80;;;3.30;;
71878;SDS011;59755;43.834;4.364;2022-11-24T03:39:56;11.07;;;3.30;;
71878;SDS011;59755;43.834;4.364;2022-11-24T03:42:21;13.10;;;3.75;;
71878;SDS011;59755;43.834;4.364;2022-11-24T03:44:47;11.57;;;2.78;;
71878;SDS011;59755;43.834;4.364;2022-11-24T03:47:13;11.00;;;3.35;;
71878;SDS011;59755;43.834;4.364;2022-11-24T03:49:38;11.00;;;3.55;;
71878;SDS011;59755;43.834;4.364;2022-11-24T03:52:05;11.70;;;3.45;;
71878;SDS011;59755;43.834;4.364;2022-11-24T03:54:32;12.32;;;3.75;;
71878;SDS011;59755;43.834;4.364;2022-11-24T03:56:57;14.52;;;3.30;;
71878;SDS011;59755;43.834;4.364;2022-11-24T03:59:23;11.10;;;2.90;;
71878;SDS011;59755;43.834;4.364;2022-11-24T04:01:49;11.15;;;3.47;;
71878;SDS011;59755;43.834;4.364;2022-11-24T04:04:14;11.45;;;3.10;;
71878;SDS011;59755;43.834;4.364;2022-11-24T04:06:40;12.48;;;3.35;;
71878;SDS011;59755;43.834;4.364;2022-11-24T04:09:06;13.43;;;2.80;;
71878;SDS011;59755;43.834;4.364;2022-11-24T04:11:32;10.88;;;3.05;;
71878;SDS011;59755;43.834;4.364;2022-11-24T04:14:16;12.95;;;3.50;;
71878;SDS011;59755;43.834;4.364;2022-11-24T04:16:43;12.35;;;3.03;;
71878;SDS011;59755;43.834;4.364;2022-11-24T04:19:09;11.73;;;3.10;;
71878;SDS011;59755;43.834;4.364;2022-11-24T04:21:34;12.55;;;3.00;;
71878;SDS011;59755;43.834;4.364;2022-11-24T04:24:00;11.25;;;2.80;;
71878;SDS011;59755;43.834;4.364;2022-11-24T04:26:26;10.50;;;2.80;;
71878;SDS011;59755;43.834;4.364;2022-11-24T04:28:52;9.98;;;2.72;;
71878;SDS011;59755;43.834;4.364;2022-11-24T04:31:17;11.35;;;3.10;;
71878;SDS011;59755;43.834;4.364;2022-11-24T04:33:43;13.35;;;3.35;;
71878;SDS011;59755;43.834;4.364;2022-11-24T04:36:09;11.23;;;2.58;;
71878;SDS011;59755;43.834;4.364;2022-11-24T04:38:35;10.25;;;3.08;;
71878;SDS011;59755;43.834;4.364;2022-11-24T04:41:01;10.60;;;2.70;;
71878;SDS011;59755;43.834;4.364;2022-11-24T04:43:28;10.48;;;2.70;;
71878;SDS011;59755;43.834;4.364;2022-11-24T04:45:54;8.80;;;3.00;;
71878;SDS011;59755;43.834;4.364;2022-11-24T04:48:23;9.63;;;2.70;;
71878;SDS011;59755;43.834;4.364;2022-11-24T04:50:48;11.20;;;2.83;;
71878;SDS011;59755;43.834;4.364;2022-11-24T04:53:14;10.57;;;2.70;;
71878;SDS011;59755;43.834;4.364;2022-11-24T04:55:40;9.45;;;2.88;;
71878;SDS011;59755;43.834;4.364;2022-11-24T04:58:07;9.77;;;2.88;;
71878;SDS011;59755;43.834;4.364;2022-11-24T05:00:34;10.27;;;2.60;;
71878;SDS011;59755;43.834;4.364;2022-11-24T05:02:59;8.02;;;2.80;;
71878;SDS011;59755;43.834;4.364;2022-11-24T05:05:25;10.85;;;3.03;;
71878;SDS011;59755;43.834;4.364;2022-11-24T05:07:51;10.88;;;3.20;;
71878;SDS011;59755;43.834;4.364;2022-11-24T05:10:17;8.82;;;3.05;;
71878;SDS011;59755;43.834;4.364;2022-11-24T05:13:10;11.93;;;3.83;;
71878;SDS011;59755;43.834;4.364;2022-11-24T05:15:38;8.52;;;2.92;;
71878;SDS011;59755;43.834;4.364;2022-11-24T05:18:05;8.98;;;2.80;;
71878;SDS011;59755;43.834;4.364;2022-11-24T05:20:33;10.35;;;2.90;;
71878;SDS011;59755;43.834;4.364;2022-11-24T05:23:00;8.68;;;3.20;;
71878;SDS011;59755;43.834;4.364;2022-11-24T05:25:27;10.90;;;2.72;;
71878;SDS011;59755;43.834;4.364;2022-11-24T05:27:53;9.35;;;2.75;;
71878;SDS011;59755;43.834;4.364;2022-11-24T05:30:19;10.45;;;2.80;;
71878;SDS011;59755;43.834;4.364;2022-11-24T05:32:44;10.02;;;3.22;;
71878;SDS011;59755;43.834;4.364;2022-11-24T05:35:10;9.98;;;2.97;;
71878;SDS011;59755;43.834;4.364;2022-11-24T05:37:36;9.50;;;2.90;;
71878;SDS011;59755;43.834;4.364;2022-11-24T05:40:02;9.70;;;2.90;;
71878;SDS011;59755;43.834;4.364;2022-11-24T05:42:29;10.60;;;2.80;;
71878;SDS011;59755;43.834;4.364;2022-11-24T05:45:08;10.02;;;2.78;;
71878;SDS011;59755;43.834;4.364;2022-11-24T05:47:37;12.35;;;3.30;;
71878;SDS011;59755;43.834;4.364;2022-11-24T05:50:03;7.32;;;2.83;;
71878;SDS011;59755;43.834;4.364;2022-11-24T05:52:29;9.85;;;2.88;;
71878;SDS011;59755;43.834;4.364;2022-11-24T05:54:55;11.60;;;2.90;;
71878;SDS011;59755;43.834;4.364;2022-11-24T05:57:21;8.35;;;3.05;;
71878;SDS011;59755;43.834;4.364;2022-11-24T05:59:46;11.43;;;2.53;;
71878;SDS011;59755;43.834;4.364;2022-11-24T06:02:12;8.43;;;2.30;;
71878;SDS011;59755;43.834;4.364;2022-11-24T06:04:38;9.07;;;2.40;;
71878;SDS011;59755;43.834;4.364;2022-11-24T06:07:06;10.23;;;2.90;;
71878;SDS011;59755;43.834;4.364;2022-11-24T06:09:39;10.50;;;3.22;;
71878;SDS011;59755;43.834;4.364;2022-11-24T06:12:07;9.63;;;3.15;;
71878;SDS011;59755;43.834;4.364;2022-11-24T06:14:34;9.20;;;2.80;;
71878;SDS011;59755;43.834;4.364;2022-11-24T06:17:00;11.60;;;3.58;;
71878;SDS011;59755;43.834;4.364;2022-11-24T06:19:26;11.43;;;2.80;;
71878;SDS011;59755;43.834;4.364;2022-11-24T06:21:52;11.10;;;3.03;;
71878;SDS011;59755;43.834;4.364;2022-11-24T06:24:18;8.38;;;2.42;;
71878;SDS011;59755;43.834;4.364;2022-11-24T06:26:44;8.15;;;2.40;;
71878;SDS011;59755;43.834;4.364;2022-11-24T06:29:10;9.85;;;2.60;;
71878;SDS011;59755;43.834;4.364;2022-11-24T06:31:35;14.90;;;3.15;;
71878;SDS011;59755;43.834;4.364;2022-11-24T06:34:04;9.73;;;2.63;;
71878;SDS011;59755;43.834;4.364;2022-11-24T06:36:31;9.77;;;2.80;;
71878;SDS011;59755;43.834;4.364;2022-11-24T06:38:56;8.88;;;2.60;;
71878;SDS011;59755;43.834;4.364;2022-11-24T06:41:24;9.27;;;2.60;;
71878;SDS011;59755;43.834;4.364;2022-11-24T06:43:50;11.15;;;2.72;;
71878;SDS011;59755;43.834;4.364;2022-11-24T06:46:16;11.18;;;2.85;;
71878;SDS011;59755;43.834;4.364;2022-11-24T06:48:41;9.80;;;2.85;;
71878;SDS011;59755;43.834;4.364;2022-11-24T06:51:07;11.57;;;3.30;;
71878;SDS011;59755;43.834;4.364;2022-11-24T06:53:37;9.07;;;2.80;;
71878;SDS011;59755;43.834;4.364;2022-11-24T06:56:11;9.15;;;2.88;;
71878;SDS011;59755;43.834;4.364;2022-11-24T06:58:41;10.52;;;3.10;;
71878;SDS011;59755;43.834;4.364;2022-11-24T07:01:19;11.77;;;2.90;;
71878;SDS011;59755;43.834;4.364;2022-11-24T07:03:47;10.68;;;2.55;;
71878;SDS011;59755;43.834;4.364;2022-11-24T07:06:13;14.93;;;3.40;;
71878;SDS011;59755;43.834;4.364;2022-11-24T07:08:40;11.98;;;3.20;;
71878;SDS011;59755;43.834;4.364;2022-11-24T07:11:06;9.27;;;2.88;;
71878;SDS011;59755;43.834;4.364;2022-11-24T07:13:33;10.57;;;3.10;;
71878;SDS011;59755;43.834;4.364;2022-11-24T07:15:59;11.13;;;3.28;;
71878;SDS011;59755;43.834;4.364;2022-11-24T07:18:37;12.20;;;3.30;;
71878;SDS011;59755;43.834;4.364;2022-11-24T07:21:03;11.90;;;3.25;;
71878;SDS011;59755;43.834;4.364;2022-11-24T07:23:29;11.43;;;3.08;;
71878;SDS011;59755;43.834;4.364;2022-11-24T07:25:55;10.63;;;3.15;;
71878;SDS011;59755;43.834;4.364;2022-11-24T07:28:21;9.75;;;3.00;;
71878;SDS011;59755;43.834;4.364;2022-11-24T07:30:46;11.48;;;2.70;;
71878;SDS011;59755;43.834;4.364;2022-11-24T07:33:12;12.68;;;3.28;;
71878;SDS011;59755;43.834;4.364;2022-11-24T07:35:38;12.63;;;3.13;;
71878;SDS011;59755;43.834;4.364;2022-11-24T07:38:03;9.90;;;3.25;;
71878;SDS011;59755;43.834;4.364;2022-11-24T07:40:29;11.35;;;3.45;;
71878;SDS011;59755;43.834;4.364;2022-11-24T07:42:55;11.00;;;3.15;;
71878;SDS011;59755;43.834;4.364;2022-11-24T07:45:23;11.18;;;3.17;;
71878;SDS011;59755;43.834;4.364;2022-11-24T07:47:49;14.32;;;3.10;;
71878;SDS011;59755;43.834;4.364;2022-11-24T07:50:15;11.27;;;3.53;;
71878;SDS011;59755;43.834;4.364;2022-11-24T07:52:41;9.27;;;3.00;;
71878;SDS011;59755;43.834;4.364;2022-11-24T07:55:07;13.45;;;3.20;;
71878;SDS011;59755;43.834;4.364;2022-11-24T07:57:33;11.77;;;3.28;;
71878;SDS011;59755;43.834;4.364;2022-11-24T07:59:59;12.93;;;3.08;;
71878;SDS011;59755;43.834;4.364;2022-11-24T08:02:25;10.60;;;2.88;;
71878;SDS011;59755;43.834;4.364;2022-11-24T08:04:50;8.32;;;2.30;;
71878;SDS011;59755;43.834;4.364;2022-11-24T08:07:16;10.63;;;2.45;;
71878;SDS011;59755;43.834;4.364;2022-11-24T08:09:42;9.77;;;2.78;;
71878;SDS011;59755;43.834;4.364;2022-11-24T08:12:07;11.43;;;2.58;;
71878;SDS011;59755;43.834;4.364;2022-11-24T08:14:33;11.45;;;2.55;;
71878;SDS011;59755;43.834;4.364;2022-11-24T08:16:59;8.60;;;2.00;;
71878;SDS011;59755;43.834;4.364;2022-11-24T08:19:24;17.45;;;3.10;;
71878;SDS011;59755;43.834;4.364;2022-11-24T08:21:50;8.40;;;2.13;;
71878;SDS011;59755;43.834;4.364;2022-11-24T08:24:16;11.70;;;2.83;;
71878;SDS011;59755;43.834;4.364;2022-11-24T08:26:42;9.73;;;2.38;;
71878;SDS011;59755;43.834;4.364;2022-11-24T08:29:08;8.77;;;2.50;;
71878;SDS011;59755;43.834;4.364;2022-11-24T08:31:34;10.02;;;2.45;;
71878;SDS011;59755;43.834;4.364;2022-11-24T08:34:03;7.43;;;2.20;;
71878;SDS011;59755;43.834;4.364;2022-11-24T08:36:30;9.95;;;3.10;;
71878;SDS011;59755;43.834;4.364;2022-11-24T08:38:57;11.85;;;3.20;;
71878;SDS011;59755;43.834;4.364;2022-11-24T08:41:24;9.40;;;2.80;;
71878;SDS011;59755;43.834;4.364;2022-11-24T08:43:51;11.05;;;2.60;;
71878;SDS011;59755;43.834;4.364;2022-11-24T08:46:17;8.23;;;2.10;;
71878;SDS011;59755;43.834;4.364;2022-11-24T08:48:47;10.98;;;2.40;;
71878;SDS011;59755;43.834;4.364;2022-11-24T08:51:14;10.20;;;2.88;;
71878;SDS011;59755;43.834;4.364;2022-11-24T08:53:42;16.67;;;3.22;;
71878;SDS011;59755;43.834;4.364;2022-11-24T08:56:08;14.20;;;3.30;;
71878;SDS011;59755;43.834;4.364;2022-11-24T08:58:35;12.88;;;2.90;;
71878;SDS011;59755;43.834;4.364;2022-11-24T09:01:05;13.05;;;2.85;;
71878;SDS011;59755;43.834;4.364;2022-11-24T09:03:32;10.02;;;2.80;;
71878;SDS011;59755;43.834;4.364;2022-11-24T09:05:58;10.32;;;2.95;;
71878;SDS011;59755;43.834;4.364;2022-11-24T09:08:25;9.20;;;2.20;;
71878;SDS011;59755;43.834;4.364;2022-11-24T09:10:51;8.57;;;2.50;;
71878;SDS011;59755;43.834;4.364;2022-11-24T09:13:16;8.95;;;2.83;;
71878;SDS011;59755;43.834;4.364;2022-11-24T09:15:42;11.45;;;2.80;;
71878;SDS011;59755;43.834;4.364;2022-11-24T09:18:08;12.57;;;2.70;;
71878;SDS011;59755;43.834;4.364;2022-11-24T09:20:34;9.57;;;2.70;;
71878;SDS011;59755;43.834;4.364;2022-11-24T09:22:59;8.98;;;2.53;;
71878;SDS011;59755;43.834;4.364;2022-11-24T09:25:25;9.55;;;2.53;;
71878;SDS011;59755;43.834;4.364;2022-11-24T09:27:51;8.38;;;2.75;;
71878;SDS011;59755;43.834;4.364;2022-11-24T09:30:18;8.60;;;1.98;;
71878;SDS011;59755;43.834;4.364;2022-11-24T09:32:44;10.35;;;2.30;;
71878;SDS011;59755;43.834;4.364;2022-11-24T09:35:10;9.63;;;2.50;;
71878;SDS011;59755;43.834;4.364;2022-11-24T09:37:35;11.30;;;2.88;;
71878;SDS011;59755;43.834;4.364;2022-11-24T09:40:01;14.38;;;2.50;;
71878;SDS011;59755;43.834;4.364;2022-11-24T09:48:32;11.65;;;2.22;;
71878;SDS011;59755;43.834;4.364;2022-11-24T09:51:04;12.07;;;2.60;;
71878;SDS011;59755;43.834;4.364;2022-11-24T09:53:40;9.38;;;2.42;;
71878;SDS011;59755;43.834;4.364;2022-11-24T10:01:44;11.40;;;2.58;;
71878;SDS011;59755;43.834;4.364;2022-11-24T10:04:15;9.02;;;2.22;;
71878;SDS011;59755;43.834;4.364;2022-11-24T10:25:58;9.00;;;2.35;;
71878;SDS011;59755;43.834;4.364;2022-11-24T10:28:34;9.63;;;2.60;;
71878;SDS011;59755;43.834;4.364;2022-11-24T10:31:52;11.48;;;2.70;;
71878;SDS011;59755;43.834;4.364;2022-11-24T10:34:00;11.65;;;2.78;;
71878;SDS011;59755;43.834;4.364;2022-11-24T10:42:19;13.27;;;2.72;;
71878;SDS011;59755;43.834;4.364;2022-11-24T10:47:25;14.98;;;3.17;;
71878;SDS011;59755;43.834;4.364;2022-11-24T10:50:03;9.93;;;2.50;;
71878;SDS011;59755;43.834;4.364;2022-11-24T10:52:44;8.68;;;2.30;;
71878;SDS011;59755;43.834;4.364;2022-11-24T10:55:19;9.70;;;2.80;;
71878;SDS011;59755;43.834;4.364;2022-11-24T10:57:44;12.75;;;3.00;;
71878;SDS011;59755;43.834;4.364;2022-11-24T11:00:28;9.57;;;2.40;;
71878;SDS011;59755;43.834;4.364;2022-11-24T11:03:16;9.90;;;2.55;;
71878;SDS011;59755;43.834;4.364;2022-11-24T11:05:47;12.75;;;2.90;;
71878;SDS011;59755;43.834;4.364;2022-11-24T11:08:20;15.60;;;3.67;;
71878;SDS011;59755;43.834;4.364;2022-11-24T11:11:08;13.63;;;2.65;;
71878;SDS011;59755;43.834;4.364;2022-11-24T11:13:36;10.27;;;2.35;;
71878;SDS011;59755;43.834;4.364;2022-11-24T11:16:12;11.40;;;2.60;;
71878;SDS011;59755;43.834;4.364;2022-11-24T11:18:46;11.30;;;3.33;;
71878;SDS011;59755;43.834;4.364;2022-11-24T11:21:23;12.23;;;2.67;;
71878;SDS011;59755;43.834;4.364;2022-11-24T11:23:59;10.77;;;2.63;;
71878;SDS011;59755;43.834;4.364;2022-11-24T11:26:29;12.23;;;2.75;;
71878;SDS011;59755;43.834;4.364;2022-11-24T11:29:01;9.73;;;2.63;;
71878;SDS011;59755;43.834;4.364;2022-11-24T11:31:34;12.43;;;2.38;;
71878;SDS011;59755;43.834;4.364;2022-11-24T11:34:04;9.32;;;2.30;;
71878;SDS011;59755;43.834;4.364;2022-11-24T11:36:39;7.93;;;2.00;;
71878;SDS011;59755;43.834;4.364;2022-11-24T11:41:42;9.05;;;2.17;;
71878;SDS011;59755;43.834;4.364;2022-11-24T11:44:32;10.20;;;2.38;;
71878;SDS011;59755;43.834;4.364;2022-11-24T11:47:07;8.45;;;2.25;;
71878;SDS011;59755;43.834;4.364;2022-11-24T11:49:44;9.13;;;2.45;;
71878;SDS011;59755;43.834;4.364;2022-11-24T11:58:55;8.02;;;2.13;;
71878;SDS011;59755;43.834;4.364;2022-11-24T12:01:47;9.60;;;2.72;;
71878;SDS011;59755;43.834;4.364;2022-11-24T12:10:36;8.18;;;2.35;;
71878;SDS011;59755;43.834;4.364;2022-11-24T12:15:51;9.25;;;2.17;;
71878;SDS011;59755;43.834;4.364;2022-11-24T12:21:17;8.75;;;2.35;;
71878;SDS011;59755;43.834;4.364;2022-11-24T12:32:27;12.23;;;2.63;;
71878;SDS011;59755;43.834;4.364;2022-11-24T12:40:30;8.98;;;2.40;;
71878;SDS011;59755;43.834;4.364;2022-11-24T12:43:32;8.50;;;2.05;;
71878;SDS011;59755;43.834;4.364;2022-11-24T12:46:03;12.43;;;2.60;;
71878;SDS011;59755;43.834;4.364;2022-11-24T12:51:27;13.88;;;2.60;;
71878;SDS011;59755;43.834;4.364;2022-11-24T12:54:09;11.00;;;3.00;;
71878;SDS011;59755;43.834;4.364;2022-11-24T12:56:47;6.47;;;1.77;;
71878;SDS011;59755;43.834;4.364;2022-11-24T12:59:42;7.10;;;2.08;;
71878;SDS011;59755;43.834;4.364;2022-11-24T13:07:52;9.35;;;2.00;;
71878;SDS011;59755;43.834;4.364;2022-11-24T13:12:55;8.18;;;1.92;;
71878;SDS011;59755;43.834;4.364;2022-11-24T13:15:27;5.68;;;1.80;;
71878;SDS011;59755;43.834;4.364;2022-11-24T13:17:54;10.73;;;2.67;;
71878;SDS011;59755;43.834;4.364;2022-11-24T13:20:22;11.98;;;2.00;;
71878;SDS011;59755;43.834;4.364;2022-11-24T13:22:51;7.80;;;1.90;;
71878;SDS011;59755;43.834;4.364;2022-11-24T13:25:23;7.60;;;2.00;;
71878;SDS011;59755;43.834;4.364;2022-11-24T13:27:59;9.68;;;2.20;;
71878;SDS011;59755;43.834;4.364;2022-11-24T13:32:58;7.40;;;2.03;;
71878;SDS011;59755;43.834;4.364;2022-11-24T13:35:39;8.15;;;1.88;;
71878;SDS011;59755;43.834;4.364;2022-11-24T13:38:50;8.18;;;2.03;;
71878;SDS011;59755;43.834;4.364;2022-11-24T13:49:23;8.02;;;1.90;;
71878;SDS011;59755;43.834;4.364;2022-11-24T13:52:34;6.85;;;1.65;;
71878;SDS011;59755;43.834;4.364;2022-11-24T13:57:43;9.95;;;2.50;;
71878;SDS011;59755;43.834;4.364;2022-11-24T14:00:33;8.05;;;1.98;;
71878;SDS011;59755;43.834;4.364;2022-11-24T14:03:02;7.85;;;1.70;;
71878;SDS011;59755;43.834;4.364;2022-11-24T14:05:52;8.23;;;2.08;;
71878;SDS011;59755;43.834;4.364;2022-11-24T14:10:56;8.75;;;2.15;;
71878;SDS011;59755;43.834;4.364;2022-11-24T14:13:30;9.27;;;2.47;;
71878;SDS011;59755;43.834;4.364;2022-11-24T14:18:38;6.28;;;1.80;;
71878;SDS011;59755;43.834;4.364;2022-11-24T14:21:22;7.90;;;2.03;;
71878;SDS011;59755;43.834;4.364;2022-11-24T14:23:58;7.15;;;1.77;;
71878;SDS011;59755;43.834;4.364;2022-11-24T14:26:32;7.72;;;2.30;;
71878;SDS011;59755;43.834;4.364;2022-11-24T14:29:05;8.82;;;1.95;;
71878;SDS011;59755;43.834;4.364;2022-11-24T14:31:51;9.73;;;2.40;;
71878;SDS011;59755;43.834;4.364;2022-11-24T14:34:19;10.20;;;2.72;;
71878;SDS011;59755;43.834;4.364;2022-11-24T14:36:46;9.40;;;2.30;;
71878;SDS011;59755;43.834;4.364;2022-11-24T14:39:14;7.53;;;2.28;;
71878;SDS011;59755;43.834;4.364;2022-11-24T14:41:42;7.88;;;2.13;;
71878;SDS011;59755;43.834;4.364;2022-11-24T14:44:19;10.60;;;2.97;;
71878;SDS011;59755;43.834;4.364;2022-11-24T14:46:54;7.15;;;1.92;;
71878;SDS011;59755;43.834;4.364;2022-11-24T14:49:28;6.18;;;1.80;;
71878;SDS011;59755;43.834;4.364;2022-11-24T14:51:57;9.02;;;2.03;;
71878;SDS011;59755;43.834;4.364;2022-11-24T14:54:28;9.60;;;2.10;;
71878;SDS011;59755;43.834;4.364;2022-11-24T14:56:59;13.32;;;3.03;;
71878;SDS011;59755;43.834;4.364;2022-11-24T14:59:31;15.80;;;3.25;;
71878;SDS011;59755;43.834;4.364;2022-11-24T15:01:59;10.93;;;2.45;;
71878;SDS011;59755;43.834;4.364;2022-11-24T15:09:53;12.10;;;3.25;;
71878;SDS011;59755;43.834;4.364;2022-11-24T15:12:30;11.13;;;2.43;;
71878;SDS011;59755;43.834;4.364;2022-11-24T15:15:02;11.23;;;2.63;;
71878;SDS011;59755;43.834;4.364;2022-11-24T15:17:53;7.97;;;2.33;;
71878;SDS011;59755;43.834;4.364;2022-11-24T15:20:39;8.73;;;2.20;;
71878;SDS011;59755;43.834;4.364;2022-11-24T15:25:44;9.30;;;2.63;;
71878;SDS011;59755;43.834;4.364;2022-11-24T15:28:10;12.43;;;2.65;;
71878;SDS011;59755;43.834;4.364;2022-11-24T15:30:36;10.15;;;2.40;;
71878;SDS011;59755;43.834;4.364;2022-11-24T15:33:02;12.75;;;2.72;;
71878;SDS011;59755;43.834;4.364;2022-11-24T15:35:38;11.52;;;2.80;;
71878;SDS011;59755;43.834;4.364;2022-11-24T15:38:03;11.02;;;2.55;;
71878;SDS011;59755;43.834;4.364;2022-11-24T15:40:29;10.45;;;3.28;;
71878;SDS011;59755;43.834;4.364;2022-11-24T15:42:55;13.52;;;3.03;;
71878;SDS011;59755;43.834;4.364;2022-11-24T15:45:22;11.40;;;2.92;;
71878;SDS011;59755;43.834;4.364;2022-11-24T15:47:50;13.00;;;3.65;;
71878;SDS011;59755;43.834;4.364;2022-11-24T15:50:16;10.75;;;3.47;;
71878;SDS011;59755;43.834;4.364;2022-11-24T15:52:43;12.60;;;3.85;;
71878;SDS011;59755;43.834;4.364;2022-11-24T15:55:12;12.65;;;4.22;;
71878;SDS011;59755;43.834;4.364;2022-11-24T15:57:44;13.00;;;3.58;;
71878;SDS011;59755;43.834;4.364;2022-11-24T16:00:14;12.98;;;4.50;;
71878;SDS011;59755;43.834;4.364;2022-11-24T16:02:41;11.52;;;4.93;;
71878;SDS011;59755;43.834;4.364;2022-11-24T16:05:08;11.85;;;3.90;;
71878;SDS011;59755;43.834;4.364;2022-11-24T16:07:34;11.63;;;4.20;;
71878;SDS011;59755;43.834;4.364;2022-11-24T16:10:00;12.48;;;3.63;;
71878;SDS011;59755;43.834;4.364;2022-11-24T16:12:26;19.00;;;4.65;;
71878;SDS011;59755;43.834;4.364;2022-11-24T16:14:51;13.70;;;4.03;;
71878;SDS011;59755;43.834;4.364;2022-11-24T16:17:17;12.77;;;4.13;;
71878;SDS011;59755;43.834;4.364;2022-11-24T16:19:43;12.23;;;4.57;;
71878;SDS011;59755;43.834;4.364;2022-11-24T16:22:09;12.45;;;4.72;;
71878;SDS011;59755;43.834;4.364;2022-11-24T16:24:34;13.73;;;5.07;;
71878;SDS011;59755;43.834;4.364;2022-11-24T16:27:00;14.45;;;5.47;;
71878;SDS011;59755;43.834;4.364;2022-11-24T16:29:26;14.43;;;5.68;;
71878;SDS011;59755;43.834;4.364;2022-11-24T16:31:51;11.77;;;5.50;;
71878;SDS011;59755;43.834;4.364;2022-11-24T16:34:18;19.83;;;8.43;;
71878;SDS011;59755;43.834;4.364;2022-11-24T16:36:43;18.40;;;8.10;;
71878;SDS011;59755;43.834;4.364;2022-11-24T16:39:09;17.27;;;9.65;;
71878;SDS011;59755;43.834;4.364;2022-11-24T16:41:35;21.15;;;11.18;;
71878;SDS011;59755;43.834;4.364;2022-11-24T16:44:01;22.20;;;12.02;;
71878;SDS011;59755;43.834;4.364;2022-11-24T16:46:26;18.58;;;11.43;;
71878;SDS011;59755;43.834;4.364;2022-11-24T16:48:52;21.88;;;11.35;;